Time;durP1;ratioP1;P1;durP2;ratioP2;P2;SDS_P1;SDS_P2;PMS_P1;PMS_P2;Temp;Humidity;BMP_temperature;BMP_pressure;BME280_temperature;BME280_humidity;BME280_pressure;Samples;Min_cycle;Max_cycle;Signal;HPM_P1;HPM_P2
2023/03/21 00:00:39;;;;;;;10.52;4.57;;;;;;;10.86;66.33;100208.06;5032574;28;21006;-88
2023/03/21 00:03:07;;;;;;;9.20;4.90;;;;;;;10.86;65.98;100208.06;4989738;28;20057;-88
2023/03/21 00:05:41;;;;;;;11.70;5.35;;;;;;;10.79;65.74;100214.03;5001329;28;20052;-87
2023/03/21 00:08:08;;;;;;;13.60;4.75;;;;;;;10.87;65.57;100203.59;4987513;28;20046;-88
2023/03/21 00:10:35;;;;;;;13.65;4.80;;;;;;;10.90;66.79;100208.66;5009838;28;20501;-88
2023/03/21 00:13:11;;;;;;;14.40;5.95;;;;;;;10.92;67.06;100211.19;5009866;28;20044;-88
2023/03/21 00:15:49;;;;;;;16.95;5.80;;;;;;;10.91;67.20;100194.38;4998954;28;20496;-88
2023/03/21 00:18:40;;;;;;;13.98;5.85;;;;;;;10.82;67.70;100198.66;4917058;28;20046;-88
2023/03/21 00:21:10;;;;;;;10.75;5.57;;;;;;;10.80;68.39;100199.75;5003758;28;20045;-88
2023/03/21 00:23:57;;;;;;;10.32;5.30;;;;;;;10.78;68.28;100197.22;4977911;28;20041;-88
2023/03/21 00:26:24;;;;;;;11.23;5.03;;;;;;;10.78;68.26;100194.56;5019874;28;20151;-88
2023/03/21 00:28:51;;;;;;;12.90;5.57;;;;;;;10.78;68.26;100196.38;5017407;28;20037;-88
2023/03/21 00:31:19;;;;;;;15.82;5.45;;;;;;;10.75;68.48;100188.69;5002808;28;21086;-88
2023/03/21 00:33:48;;;;;;;16.23;5.43;;;;;;;10.72;68.39;100196.91;5010887;28;20403;-88
2023/03/21 00:36:15;;;;;;;12.15;6.07;;;;;;;10.72;68.47;100189.78;5020679;28;20038;-88
2023/03/21 00:38:42;;;;;;;14.70;6.05;;;;;;;10.76;68.12;100190.34;4988363;28;20397;-88
2023/03/21 00:41:11;;;;;;;16.00;7.90;;;;;;;10.78;67.12;100183.09;4990932;28;20043;-88
2023/03/21 00:43:54;;;;;;;11.27;6.53;;;;;;;10.77;67.17;100178.78;4978001;28;20125;-88
2023/03/21 00:46:21;;;;;;;14.23;5.80;;;;;;;10.74;67.00;100181.69;4986878;28;20045;-88
2023/03/21 00:48:51;;;;;;;14.93;5.80;;;;;;;10.72;66.98;100173.84;4997364;28;20041;-87
2023/03/21 00:51:25;;;;;;;15.68;6.32;;;;;;;10.71;66.85;100176.59;4991880;28;20397;-85
2023/03/21 00:53:56;;;;;;;14.63;6.72;;;;;;;10.68;67.20;100168.91;5016265;28;20048;-88
2023/03/21 00:56:26;;;;;;;14.93;6.30;;;;;;;10.74;67.71;100163.09;4999969;28;20033;-87
2023/03/21 00:58:53;;;;;;;12.88;6.70;;;;;;;10.72;68.08;100165.03;5015416;28;20775;-88
2023/03/21 01:01:20;;;;;;;14.30;6.03;;;;;;;10.70;67.94;100161.66;4984329;28;20377;-87
2023/03/21 01:03:49;;;;;;;12.27;5.88;;;;;;;10.71;67.77;100158.00;5020805;28;20041;-89
2023/03/21 01:06:18;;;;;;;16.23;6.35;;;;;;;10.70;67.61;100153.69;5002533;28;20069;-88
2023/03/21 01:08:46;;;;;;;10.43;6.28;;;;;;;10.68;66.95;100153.81;4984317;28;20464;-88
2023/03/21 01:11:21;;;;;;;9.25;6.20;;;;;;;10.64;67.05;100147.91;4996202;28;20057;-88
2023/03/21 01:13:48;;;;;;;10.18;5.20;;;;;;;10.62;67.32;100151.69;4991451;28;20132;-88
2023/03/21 01:16:35;;;;;;;12.77;6.75;;;;;;;10.61;67.79;100152.66;4960958;28;20053;-88
2023/03/21 01:19:02;;;;;;;13.45;6.00;;;;;;;10.62;67.91;100141.88;5001046;28;20061;-86
2023/03/21 01:21:33;;;;;;;15.07;7.20;;;;;;;10.63;67.76;100145.38;4989507;28;20076;-88
2023/03/21 01:24:00;;;;;;;13.15;6.20;;;;;;;10.61;67.77;100142.03;4980336;28;20049;-88
2023/03/21 01:26:28;;;;;;;16.92;6.55;;;;;;;10.61;68.16;100137.56;5007885;28;20045;-87
2023/03/21 01:28:54;;;;;;;14.73;7.22;;;;;;;10.56;68.65;100134.44;5002397;28;20098;-88
2023/03/21 01:31:21;;;;;;;20.23;6.75;;;;;;;10.56;68.69;100142.41;4992363;28;20049;-88
2023/03/21 01:33:48;;;;;;;16.20;7.90;;;;;;;10.52;68.63;100140.97;4988545;28;20045;-88
2023/03/21 01:36:21;;;;;;;11.45;5.80;;;;;;;10.49;68.94;100143.06;4982499;28;20473;-88
2023/03/21 01:38:52;;;;;;;12.98;6.13;;;;;;;10.55;69.09;100142.53;4998501;28;20049;-88
2023/03/21 01:41:27;;;;;;;9.80;5.47;;;;;;;10.47;70.88;100142.34;4993604;28;20049;-88
2023/03/21 01:44:16;;;;;;;11.82;5.65;;;;;;;10.52;70.54;100140.97;4942214;28;20046;-88
2023/03/21 01:46:48;;;;;;;15.05;5.50;;;;;;;10.50;70.24;100134.09;4966290;28;20053;-88
2023/03/21 01:50:00;;;;;;;12.13;5.63;;;;;;;10.52;69.33;100134.81;4915688;28;20057;-87
2023/03/21 01:52:41;;;;;;;19.27;6.10;;;;;;;10.53;69.00;100123.22;4989210;28;20670;-89
2023/03/21 01:55:12;;;;;;;21.85;6.90;;;;;;;10.52;68.69;100130.34;5004448;28;20046;-89
2023/03/21 01:57:52;;;;;;;13.48;6.03;;;;;;;10.49;69.07;100121.81;4961957;28;20069;-88
2023/03/21 02:00:54;;;;;;;18.60;7.10;;;;;;;10.43;69.44;100112.53;4946009;28;20128;-88
2023/03/21 02:03:48;;;;;;;14.45;6.82;;;;;;;10.45;69.59;100115.91;4981439;28;20050;-88
2023/03/21 02:06:53;;;;;;;15.23;6.75;;;;;;;10.42;70.26;100110.84;4908709;28;20401;-88
2023/03/21 02:09:32;;;;;;;16.00;7.75;;;;;;;10.42;69.92;100113.50;4968185;28;20133;-88
2023/03/21 02:12:01;;;;;;;21.92;7.43;;;;;;;10.42;69.71;100106.38;4987057;28;20049;-87
2023/03/21 02:14:31;;;;;;;13.65;6.25;;;;;;;10.43;69.84;100110.75;5010027;28;20096;-87
2023/03/21 02:17:10;;;;;;;15.90;6.63;;;;;;;10.33;69.03;100107.16;4993799;28;20096;-88
2023/03/21 02:19:59;;;;;;;17.83;6.40;;;;;;;10.27;69.03;100099.66;5005177;28;20136;-88
2023/03/21 02:22:31;;;;;;;19.88;6.60;;;;;;;10.37;69.59;100105.91;4944758;28;20042;-88
2023/03/21 02:25:38;;;;;;;14.45;7.32;;;;;;;10.28;70.48;100103.19;4998870;28;20734;-88
2023/03/21 02:28:12;;;;;;;12.57;6.97;;;;;;;10.26;70.47;100105.94;4991210;28;20038;-88
2023/03/21 02:31:23;;;;;;;13.00;6.15;;;;;;;10.16;71.32;100105.03;4994195;28;20046;-88
2023/03/21 02:33:52;;;;;;;19.50;7.20;;;;;;;10.27;70.59;100098.81;4927033;28;20505;-88
2023/03/21 02:36:25;;;;;;;13.35;6.53;;;;;;;10.22;70.76;100097.38;5008097;28;20045;-88
2023/03/21 02:38:55;;;;;;;11.60;6.33;;;;;;;10.25;70.39;100098.94;5004014;28;20484;-88
2023/03/21 02:41:28;;;;;;;38.53;7.53;;;;;;;10.23;71.13;100095.59;4989430;28;20054;-89
2023/03/21 02:44:10;;;;;;;17.77;6.55;;;;;;;10.22;71.45;100102.69;4953125;28;20123;-87
2023/03/21 02:47:00;;;;;;;11.75;5.70;;;;;;;10.15;72.53;100105.97;4977043;28;20053;-88
2023/03/21 02:49:54;;;;;;;11.18;5.53;;;;;;;10.18;72.20;100103.94;4956831;28;20058;-87
2023/03/21 02:52:25;;;;;;;16.25;6.15;;;;;;;10.24;71.34;100099.91;4953358;28;20040;-88
2023/03/21 02:55:14;;;;;;;15.32;6.28;;;;;;;10.20;70.73;100104.66;4963498;28;20473;-87
2023/03/21 02:57:56;;;;;;;11.25;6.03;;;;;;;10.27;70.51;100096.16;4936374;28;20044;-88
2023/03/21 03:00:39;;;;;;;13.48;6.15;;;;;;;10.25;70.32;100098.94;4956487;28;20042;-88
2023/03/21 03:03:06;;;;;;;14.25;6.00;;;;;;;10.28;70.55;100103.19;4988553;28;20132;-88
2023/03/21 03:05:44;;;;;;;16.65;6.22;;;;;;;10.19;70.61;100100.28;4995053;28;20038;-88
2023/03/21 03:08:11;;;;;;;;;;;;;;;9.99;72.15;100098.44;4952989;28;20049;-88
2023/03/21 03:10:55;;;;;;;12.55;6.38;;;;;;;10.18;71.54;100101.28;4990514;28;19929;-88
2023/03/21 03:13:41;;;;;;;;;;;;;;;9.99;71.53;100098.44;4971074;28;20088;-88
2023/03/21 03:16:24;;;;;;;16.52;6.18;;;;;;;10.13;71.06;100095.50;4945479;28;19955;-88
2023/03/21 03:18:59;;;;;;;19.30;7.20;;;;;;;10.14;71.10;100099.84;4992564;28;20045;-88
2023/03/21 03:21:36;;;;;;;19.55;7.43;;;;;;;10.23;71.11;100098.25;4989640;28;20054;-88
2023/03/21 03:24:23;;;;;;;13.13;6.93;;;;;;;10.08;71.52;100092.38;4956210;28;20126;-88
2023/03/21 03:26:54;;;;;;;18.98;6.93;;;;;;;10.18;71.18;100092.47;4928416;28;20433;-88
2023/03/21 03:29:25;;;;;;;16.02;6.57;;;;;;;10.17;71.16;100091.63;4964782;28;20050;-88
2023/03/21 03:31:56;;;;;;;11.98;6.55;;;;;;;10.14;71.19;100083.91;4992274;28;20492;-87
2023/03/21 03:34:31;;;;;;;17.70;7.18;;;;;;;10.13;71.37;100079.59;4982404;28;20112;-88
2023/03/21 03:36:59;;;;;;;19.40;7.40;;;;;;;10.18;70.94;100082.69;4979410;28;20485;-87
2023/03/21 03:39:33;;;;;;;22.55;7.95;;;;;;;10.13;71.07;100082.25;4997870;28;20100;-88
2023/03/21 03:42:18;;;;;;;16.50;6.93;;;;;;;10.09;71.12;100083.44;4948037;28;20064;-88
2023/03/21 03:45:02;;;;;;;22.73;8.30;;;;;;;10.13;70.83;100081.41;4954872;28;20997;-87
2023/03/21 03:47:36;;;;;;;12.82;7.22;;;;;;;10.09;71.35;100077.31;5000420;28;20545;-88
2023/03/21 03:50:29;;;;;;;14.45;6.55;;;;;;;10.04;71.55;100087.47;4910651;28;20041;-88
2023/03/21 03:53:24;;;;;;;17.30;7.07;;;;;;;9.98;71.88;100083.50;4985881;28;20103;-87
2023/03/21 03:55:55;;;;;;;15.30;6.55;;;;;;;10.09;71.57;100072.00;4901582;28;20446;-88
2023/03/21 03:58:23;;;;;;;15.98;7.15;;;;;;;10.11;71.11;100081.53;4972444;28;20053;-85
2023/03/21 04:01:06;;;;;;;;;;;;;;;9.82;71.41;100091.88;4983260;28;20054;-88
2023/03/21 04:03:35;;;;;;;18.67;6.18;;;;;;;10.07;71.08;100088.03;4995673;28;19959;-88
2023/03/21 04:06:15;;;;;;;20.55;7.05;;;;;;;10.05;71.07;100092.66;4989985;28;20112;-87
2023/03/21 04:08:43;;;;;;;14.75;6.95;;;;;;;10.06;70.82;100088.19;4981890;28;20413;-88
2023/03/21 04:11:13;;;;;;;11.57;6.72;;;;;;;9.97;70.93;100090.63;4999611;28;20048;-88
2023/03/21 04:13:44;;;;;;;12.48;6.22;;;;;;;10.04;71.03;100098.06;4958757;28;20137;-87
2023/03/21 04:16:18;;;;;;;11.80;6.40;;;;;;;10.01;71.33;100091.22;4994559;28;20499;-88
2023/03/21 04:18:46;;;;;;;12.18;6.10;;;;;;;10.02;71.23;100090.22;5006010;28;20595;-87
2023/03/21 04:21:17;;;;;;;14.00;6.55;;;;;;;10.01;71.35;100088.56;4995195;28;20046;-88
2023/03/21 04:23:44;;;;;;;12.70;5.90;;;;;;;10.02;71.45;100084.91;4990070;28;20520;-89
2023/03/21 04:26:11;;;;;;;14.63;6.35;;;;;;;10.02;71.57;100086.72;5006287;28;20118;-87
2023/03/21 04:28:43;;;;;;;13.32;5.97;;;;;;;10.02;71.64;100084.91;5008772;28;20423;-87
2023/03/21 04:31:32;;;;;;;12.05;5.80;;;;;;;9.99;71.75;100083.34;4957937;28;20109;-87
2023/03/21 04:34:08;;;;;;;17.88;6.55;;;;;;;9.99;71.56;100085.19;4951389;28;20053;-88
2023/03/21 04:36:37;;;;;;;11.82;5.57;;;;;;;10.01;71.33;100083.25;4985636;28;20057;-87
2023/03/21 04:39:11;;;;;;;15.98;5.90;;;;;;;9.98;71.57;100079.03;5014124;28;20128;-88
2023/03/21 04:41:39;;;;;;;12.52;5.80;;;;;;;9.98;71.41;100076.38;4957877;28;20053;-88
2023/03/21 04:44:07;;;;;;;11.68;6.13;;;;;;;9.96;71.87;100080.97;4977829;28;20138;-88
2023/03/21 04:46:35;;;;;;;11.57;6.72;;;;;;;9.98;71.81;100071.06;4986784;28;20053;-88
2023/03/21 04:49:02;;;;;;;12.80;6.20;;;;;;;9.98;71.74;100078.19;4964243;28;20101;-88
2023/03/21 04:51:29;;;;;;;15.90;6.50;;;;;;;9.93;71.89;100069.78;5003722;28;20049;-88
2023/03/21 04:53:56;;;;;;;18.33;7.22;;;;;;;9.98;71.83;100072.91;4995408;28;20100;-88
2023/03/21 04:56:31;;;;;;;11.10;6.43;;;;;;;9.96;71.91;100069.53;5023232;28;20046;-84
2023/03/21 04:58:59;;;;;;;14.57;6.32;;;;;;;9.98;71.85;100071.06;4975620;28;20096;-85
2023/03/21 05:01:29;;;;;;;14.02;6.60;;;;;;;9.96;71.75;100073.00;5002394;28;20057;-85
2023/03/21 05:04:00;;;;;;;18.15;7.50;;;;;;;9.91;71.95;100067.25;5011770;28;20044;-85
2023/03/21 05:06:27;;;;;;;15.77;6.50;;;;;;;9.96;71.79;100061.56;4998651;28;20041;-85
2023/03/21 05:09:04;;;;;;;12.95;6.75;;;;;;;9.93;72.19;100059.16;4994571;28;20136;-84
2023/03/21 05:11:36;;;;;;;13.50;6.70;;;;;;;9.91;72.43;100061.09;4969736;28;20068;-84
2023/03/21 05:14:04;;;;;;;18.48;7.30;;;;;;;9.90;71.94;100057.59;4987266;28;20111;-84
2023/03/21 05:16:33;;;;;;;14.68;7.28;;;;;;;9.90;72.28;100054.13;5029630;28;20049;-85
2023/03/21 05:19:03;;;;;;;15.02;7.30;;;;;;;9.92;72.17;100068.06;4984782;28;20048;-85
2023/03/21 05:21:40;;;;;;;15.20;8.88;;;;;;;9.91;72.40;100064.59;4956932;28;20702;-84
2023/03/21 05:24:24;;;;;;;20.45;9.85;;;;;;;9.89;72.21;100070.97;4985624;28;20041;-84
2023/03/21 05:26:54;;;;;;;17.35;8.20;;;;;;;9.92;72.08;100060.13;5003909;28;20408;-85
2023/03/21 05:29:23;;;;;;;16.17;7.88;;;;;;;9.87;71.88;100064.97;4956160;28;20057;-84
2023/03/21 05:31:56;;;;;;;16.42;9.13;;;;;;;9.86;72.33;100064.13;5010447;28;20079;-84
2023/03/21 05:34:23;;;;;;;15.10;7.03;;;;;;;9.90;72.08;100060.25;5014288;28;20408;-84
2023/03/21 05:36:50;;;;;;;14.40;6.68;;;;;;;9.89;72.33;100069.16;4998975;28;20054;-84
2023/03/21 05:39:17;;;;;;;17.38;7.18;;;;;;;9.92;72.55;100071.59;4989739;28;20054;-84
2023/03/21 05:41:56;;;;;;;16.35;6.85;;;;;;;9.86;72.86;100065.94;5004679;28;20045;-84
2023/03/21 05:44:24;;;;;;;16.40;7.22;;;;;;;9.91;72.66;100069.06;4989187;28;20425;-85
2023/03/21 05:46:51;;;;;;;15.73;7.18;;;;;;;9.87;72.68;100071.13;5002451;28;20494;-83
2023/03/21 05:49:21;;;;;;;17.90;7.85;;;;;;;9.90;72.62;100070.03;4986812;28;20130;-85
2023/03/21 05:51:52;;;;;;;16.13;6.63;;;;;;;9.93;73.13;100072.44;4988022;28;20085;-84
2023/03/21 05:54:19;;;;;;;15.93;7.65;;;;;;;9.97;72.52;100072.06;4996000;28;20120;-85
2023/03/21 05:56:48;;;;;;;18.92;8.00;;;;;;;9.96;72.53;100075.66;4986960;28;20056;-84
2023/03/21 05:59:25;;;;;;;27.02;9.60;;;;;;;9.94;72.63;100080.25;4968239;28;20049;-84
2023/03/21 06:01:53;;;;;;;13.45;6.47;;;;;;;9.94;72.85;100077.59;4998704;28;20073;-84
2023/03/21 06:04:20;;;;;;;16.50;7.97;;;;;;;9.95;72.93;100078.47;4993205;28;20042;-85
2023/03/21 06:06:47;;;;;;;15.90;7.13;;;;;;;9.96;73.01;100085.44;5010762;28;20167;-86
2023/03/21 06:09:14;;;;;;;16.55;7.38;;;;;;;10.01;72.75;100088.56;5006677;28;20071;-86
2023/03/21 06:11:48;;;;;;;16.48;8.07;;;;;;;10.03;72.42;100080.47;5007296;28;20488;-86
2023/03/21 06:14:22;;;;;;;23.08;7.45;;;;;;;10.03;72.61;100080.47;4989601;28;20052;-87
2023/03/21 06:17:06;;;;;;;23.85;10.13;;;;;;;10.04;72.55;100083.00;5006453;28;20497;-86
2023/03/21 06:19:39;;;;;;;23.50;9.85;;;;;;;10.07;72.17;100088.03;4993661;28;20125;-85
2023/03/21 06:22:10;;;;;;;20.88;8.88;;;;;;;10.08;72.59;100084.44;4992642;28;20061;-85
2023/03/21 06:24:39;;;;;;;19.98;9.38;;;;;;;10.08;72.66;100086.25;4990941;28;20047;-85
2023/03/21 06:27:06;;;;;;;23.13;10.18;;;;;;;10.11;72.62;100094.78;5006998;28;20128;-86
2023/03/21 06:29:47;;;;;;;21.77;9.25;;;;;;;10.14;72.59;100089.22;4975883;28;20509;-86
2023/03/21 06:32:15;;;;;;;22.55;9.10;;;;;;;10.06;72.70;100091.66;4985643;28;20041;-86
2023/03/21 06:34:43;;;;;;;25.10;8.80;;;;;;;10.07;72.50;100093.34;4989429;28;20045;-85
2023/03/21 06:37:13;;;;;;;22.67;8.32;;;;;;;10.11;72.33;100092.13;4999369;28;20133;-85
2023/03/21 06:39:40;;;;;;;21.90;8.40;;;;;;;10.14;72.10;100094.53;5009822;28;20041;-84
2023/03/21 06:42:08;;;;;;;26.20;9.25;;;;;;;10.13;72.09;100089.38;5005374;28;20075;-85
2023/03/21 06:44:35;;;;;;;19.85;7.70;;;;;;;10.14;71.65;100091.03;4985893;28;20050;-87
2023/03/21 06:47:06;;;;;;;21.17;7.97;;;;;;;10.10;71.99;100093.13;4985588;28;20104;-87
2023/03/21 06:49:34;;;;;;;25.73;8.98;;;;;;;10.17;71.95;100090.78;4984625;28;20065;-86
2023/03/21 06:52:06;;;;;;;19.33;8.35;;;;;;;10.14;71.90;100094.53;4972107;28;20098;-86
2023/03/21 06:54:33;;;;;;;19.85;8.20;;;;;;;10.16;72.01;100089.09;4992044;28;22674;-87
2023/03/21 06:57:08;;;;;;;21.42;8.23;;;;;;;10.13;72.15;100087.53;4985231;28;20041;-85
2023/03/21 06:59:35;;;;;;;22.13;9.15;;;;;;;10.16;71.70;100081.97;4993870;28;20137;-85
2023/03/21 07:02:05;;;;;;;20.90;8.05;;;;;;;10.18;71.51;100088.00;4984959;28;20119;-85
2023/03/21 07:04:38;;;;;;;22.92;8.13;;;;;;;10.22;71.45;100081.47;4954149;28;20119;-86
2023/03/21 07:07:09;;;;;;;19.00;8.40;;;;;;;10.19;71.26;100092.34;5004812;28;20117;-86
2023/03/21 07:09:36;;;;;;;23.20;10.27;;;;;;;10.29;71.06;100092.44;5006307;28;20082;-85
2023/03/21 07:12:05;;;;;;;21.70;9.30;;;;;;;10.43;70.55;100088.63;4988129;28;20076;-85
2023/03/21 07:14:44;;;;;;;19.23;8.98;;;;;;;10.47;70.04;100091.88;4982205;28;20215;-86
2023/03/21 07:17:11;;;;;;;21.10;8.05;;;;;;;10.55;69.52;100089.44;5004537;28;20573;-87
2023/03/21 07:19:37;;;;;;;22.40;8.63;;;;;;;10.54;69.09;100087.75;5006115;28;20046;-86
2023/03/21 07:22:04;;;;;;;28.85;8.13;;;;;;;10.60;68.39;100080.09;4984138;28;20041;-87
2023/03/21 07:24:31;;;;;;;19.75;8.45;;;;;;;10.61;68.38;100076.47;4987895;28;20531;-84
2023/03/21 07:26:58;;;;;;;21.27;7.68;;;;;;;10.56;68.46;100076.03;4998058;28;20057;-84
2023/03/21 07:29:25;;;;;;;21.65;8.82;;;;;;;10.59;68.64;100081.06;4975264;28;20386;-84
2023/03/21 07:31:52;;;;;;;14.65;8.20;;;;;;;10.61;68.55;100078.31;5018929;28;20414;-86
2023/03/21 07:34:21;;;;;;;19.90;8.40;;;;;;;10.65;68.16;100074.41;5001621;28;20050;-86
2023/03/21 07:36:48;;;;;;;22.20;7.80;;;;;;;10.66;68.05;100073.44;5006129;28;20050;-86
2023/03/21 07:39:16;;;;;;;22.75;8.55;;;;;;;10.68;68.39;100071.47;4989768;28;20044;-87
2023/03/21 07:41:43;;;;;;;15.73;8.02;;;;;;;10.65;68.13;100069.09;5003236;28;20062;-86
2023/03/21 07:44:22;;;;;;;17.77;7.90;;;;;;;10.75;68.01;100074.47;4980518;28;20129;-85
2023/03/21 07:47:00;;;;;;;19.88;7.88;;;;;;;10.74;67.93;100070.97;4981396;28;20088;-86
2023/03/21 07:49:27;;;;;;;20.38;8.48;;;;;;;10.73;67.83;100069.28;5003414;28;20077;-86
2023/03/21 07:51:54;;;;;;;24.73;9.85;;;;;;;10.75;67.82;100071.81;4968308;28;20057;-86
2023/03/21 07:54:21;;;;;;;21.52;9.05;;;;;;;10.72;67.93;100069.41;4977649;28;20092;-85
2023/03/21 07:56:48;;;;;;;21.38;9.45;;;;;;;10.83;67.90;100069.31;4990644;28;20077;-86
2023/03/21 07:59:15;;;;;;;22.15;9.27;;;;;;;10.89;67.87;100068.81;5023280;28;20048;-87
2023/03/21 08:01:42;;;;;;;21.55;9.07;;;;;;;10.99;67.75;100064.41;4989234;28;20041;-87
2023/03/21 08:04:08;;;;;;;23.80;10.18;;;;;;;11.07;67.50;100071.69;5001332;28;20045;-86
2023/03/21 08:06:35;;;;;;;23.23;9.85;;;;;;;11.07;67.48;100066.38;5000062;28;20048;-86
2023/03/21 08:09:02;;;;;;;20.35;8.30;;;;;;;11.14;67.64;100061.34;4985857;28;20042;-86
2023/03/21 08:11:30;;;;;;;22.58;9.82;;;;;;;11.18;67.56;100063.63;4992742;28;20041;-85
2023/03/21 08:13:57;;;;;;;23.73;10.02;;;;;;;11.23;68.06;100057.91;5010845;28;20116;-85
2023/03/21 08:16:24;;;;;;;31.98;10.07;;;;;;;11.22;68.07;100062.38;4968250;28;20041;-86
2023/03/21 08:18:51;;;;;;;27.67;9.60;;;;;;;11.26;67.93;100055.81;4990331;28;20432;-85
2023/03/21 08:21:18;;;;;;;25.65;10.15;;;;;;;11.34;68.22;100056.97;5002748;28;20037;-86
2023/03/21 08:23:44;;;;;;;23.42;10.07;;;;;;;11.36;68.19;100052.34;4981259;28;20458;-87
2023/03/21 08:26:14;;;;;;;42.58;11.32;;;;;;;11.38;68.28;100047.75;4990161;28;20096;-88
2023/03/21 08:28:41;;;;;;;22.65;10.30;;;;;;;11.41;68.80;100043.00;5006983;28;20540;-87
2023/03/21 08:31:09;;;;;;;23.52;11.25;;;;;;;11.44;69.01;100045.38;5007223;28;20045;-86
2023/03/21 08:33:36;;;;;;;28.52;11.77;;;;;;;11.51;69.08;100045.69;5007267;28;20046;-87
2023/03/21 08:36:04;;;;;;;27.70;11.63;;;;;;;11.58;69.08;100036.19;4993054;28;20063;-86
2023/03/21 08:38:32;;;;;;;20.90;10.60;;;;;;;11.58;69.35;100044.16;5002028;28;20042;-86
2023/03/21 08:40:59;;;;;;;21.83;11.02;;;;;;;11.64;68.84;100043.59;5007418;28;20115;-86
2023/03/21 08:43:27;;;;;;;26.83;11.27;;;;;;;11.67;69.22;100035.34;4981107;28;20408;-87
2023/03/21 08:45:55;;;;;;;26.35;11.40;;;;;;;11.71;69.61;100028.78;5010584;28;20037;-87
2023/03/21 08:48:22;;;;;;;26.08;10.70;;;;;;;11.76;69.55;100032.84;5003776;28;20092;-87
2023/03/21 08:50:49;;;;;;;25.70;10.82;;;;;;;11.82;69.30;100030.44;5010611;28;20124;-87
2023/03/21 08:53:16;;;;;;;27.85;11.05;;;;;;;11.86;69.45;100036.34;5007201;28;20076;-87
2023/03/21 08:55:43;;;;;;;28.27;11.40;;;;;;;11.91;69.13;100028.81;5007832;28;20095;-86
2023/03/21 08:58:10;;;;;;;23.20;11.07;;;;;;;11.90;68.99;100033.28;5023948;28;20045;-85
2023/03/21 09:00:37;;;;;;;27.67;11.18;;;;;;;11.94;69.05;100032.03;5000083;28;20049;-87
2023/03/21 09:03:03;;;;;;;18.38;9.95;;;;;;;12.00;68.90;100032.47;5002415;28;20049;-86
2023/03/21 09:05:30;;;;;;;20.45;9.32;;;;;;;12.06;68.75;100030.09;5017140;28;20046;-87
2023/03/21 09:08:00;;;;;;;25.02;11.05;;;;;;;12.09;68.80;100028.97;4988370;28;20408;-86
2023/03/21 09:10:27;;;;;;;23.90;10.07;;;;;;;12.11;68.33;100025.19;5004300;28;20500;-87
2023/03/21 09:12:54;;;;;;;19.40;7.53;;;;;;;12.14;66.90;100014.25;5003607;28;20049;-86
2023/03/21 09:15:24;;;;;;;21.85;8.00;;;;;;;12.19;66.60;100019.16;5001921;28;20044;-85
2023/03/21 09:17:52;;;;;;;11.75;6.03;;;;;;;12.26;66.65;100022.06;5002853;28;20496;-88
2023/03/21 09:20:24;;;;;;;24.60;9.63;;;;;;;12.33;66.84;100012.53;4976026;28;20053;-88
2023/03/21 09:22:52;;;;;;;15.13;6.95;;;;;;;12.30;66.42;100011.00;5018118;28;20048;-87
2023/03/21 09:25:19;;;;;;;12.93;5.32;;;;;;;12.35;65.64;100015.91;5005014;28;20068;-88
2023/03/21 09:27:46;;;;;;;11.02;4.82;;;;;;;12.34;63.89;100012.41;5011177;28;20501;-87
2023/03/21 09:30:17;;;;;;;17.05;5.65;;;;;;;12.41;63.65;100017.16;4994769;28;20473;-87
2023/03/21 09:32:48;;;;;;;11.32;4.82;;;;;;;12.45;63.29;100019.38;5005265;28;20053;-87
2023/03/21 09:35:19;;;;;;;10.65;3.97;;;;;;;12.45;62.94;100015.88;4989708;28;20466;-85
2023/03/21 09:37:47;;;;;;;9.65;4.38;;;;;;;12.50;63.10;100011.81;5009116;28;20096;-85
2023/03/21 09:40:20;;;;;;;12.68;3.88;;;;;;;12.49;62.44;100009.28;5014693;28;20053;-88
2023/03/21 09:43:11;;;;;;;10.10;3.53;;;;;;;12.46;61.64;100014.91;4961352;28;20158;-85
2023/03/21 09:45:40;;;;;;;9.63;4.30;;;;;;;12.55;62.55;100012.22;4986672;28;20053;-87
2023/03/21 09:48:16;;;;;;;15.23;4.15;;;;;;;12.55;62.13;100016.72;5018611;28;20460;-85
2023/03/21 09:50:43;;;;;;;12.77;3.88;;;;;;;12.61;62.38;100018.78;5006262;28;20410;-87
2023/03/21 09:53:14;;;;;;;10.80;3.45;;;;;;;12.65;61.94;100019.34;4987925;28;20049;-87
2023/03/21 09:55:41;;;;;;;9.27;4.13;;;;;;;12.69;61.69;100018.88;5002948;28;20398;-85
2023/03/21 09:58:31;;;;;;;12.50;4.78;;;;;;;12.63;61.00;100016.00;4988558;28;20103;-85
2023/03/21 10:01:28;;;;;;;13.52;4.20;;;;;;;12.73;61.64;100014.13;4942458;28;20890;-85
2023/03/21 10:03:56;;;;;;;14.15;4.88;;;;;;;12.77;61.52;100016.38;4933440;28;20054;-85
2023/03/21 10:06:28;;;;;;;9.52;4.32;;;;;;;12.81;61.35;100015.06;4943651;28;20791;-85
2023/03/21 10:09:00;;;;;;;16.92;4.22;;;;;;;12.86;61.30;100013.81;4927143;28;20082;-85
2023/03/21 10:11:31;;;;;;;13.10;4.72;;;;;;;12.88;61.17;100004.69;4952710;28;20057;-86
2023/03/21 10:14:01;;;;;;;14.50;4.60;;;;;;;12.92;61.31;100002.53;4952538;28;20046;-86
2023/03/21 10:17:02;;;;;;;17.30;4.85;;;;;;;12.95;60.94;99999.59;4947002;28;20057;-87
2023/03/21 10:19:29;;;;;;;14.32;4.85;;;;;;;12.98;61.28;100001.97;4902646;28;20053;-87
2023/03/21 10:21:56;;;;;;;15.25;4.78;;;;;;;13.02;60.98;100003.34;4919020;28;20046;-87
2023/03/21 10:24:28;;;;;;;9.15;3.90;;;;;;;13.04;61.02;100002.22;4940526;28;20050;-87
2023/03/21 10:26:56;;;;;;;9.35;4.07;;;;;;;13.07;61.09;99997.56;4936702;28;20054;-87
2023/03/21 10:29:26;;;;;;;13.18;4.60;;;;;;;13.07;60.66;99993.06;4947228;28;20055;-84
2023/03/21 10:31:53;;;;;;;14.95;5.00;;;;;;;13.10;60.72;99991.94;4975042;28;20050;-88
2023/03/21 10:34:33;;;;;;;10.73;4.43;;;;;;;13.04;58.95;99994.22;5005701;28;20120;-88
2023/03/21 10:37:02;;;;;;;11.77;4.47;;;;;;;13.07;59.46;99987.75;4992952;28;20128;-87
2023/03/21 10:39:39;;;;;;;11.10;5.13;;;;;;;13.06;58.51;99985.25;5005105;28;20046;-87
2023/03/21 10:42:08;;;;;;;12.50;4.50;;;;;;;13.06;59.34;99988.75;4988496;28;20382;-87
2023/03/21 10:44:35;;;;;;;11.77;4.30;;;;;;;13.08;59.30;99985.91;4985680;28;20080;-87
2023/03/21 10:47:05;;;;;;;10.35;4.20;;;;;;;13.08;58.79;99985.91;5017355;28;20033;-87
2023/03/21 10:49:32;;;;;;;8.20;3.95;;;;;;;13.08;57.61;99983.25;5006393;28;20056;-88
2023/03/21 10:52:19;;;;;;;5.90;3.60;;;;;;;13.05;57.67;99976.38;4965451;28;20125;-87
2023/03/21 10:54:47;;;;;;;7.55;3.38;;;;;;;13.06;57.94;99986.09;5001170;28;22551;-86
2023/03/21 10:57:20;;;;;;;13.60;4.25;;;;;;;13.07;57.56;99987.75;4990079;28;20134;-88
2023/03/21 10:59:56;;;;;;;9.82;4.20;;;;;;;13.10;57.35;99979.47;4979563;28;20065;-87
2023/03/21 11:02:27;;;;;;;10.57;4.25;;;;;;;13.15;58.51;99987.88;4988966;28;20042;-87
2023/03/21 11:04:54;;;;;;;12.70;4.60;;;;;;;13.17;58.41;99980.53;4990160;28;20128;-87
2023/03/21 11:07:24;;;;;;;10.00;5.22;;;;;;;13.18;58.71;99989.41;4989814;28;20056;-87
2023/03/21 11:09:57;;;;;;;14.82;5.15;;;;;;;13.16;58.66;99978.88;5023974;28;20040;-87
2023/03/21 11:12:32;;;;;;;16.60;5.75;;;;;;;13.14;59.37;99983.50;5003239;28;20139;-88
2023/03/21 11:15:29;;;;;;;17.33;5.28;;;;;;;13.06;59.13;99983.41;4974913;28;20041;-86
2023/03/21 11:17:57;;;;;;;11.15;4.90;;;;;;;13.16;59.98;99978.88;4934920;28;20033;-87
2023/03/21 11:20:25;;;;;;;11.80;4.60;;;;;;;13.12;59.56;99980.16;5013842;28;20050;-87
2023/03/21 11:22:54;;;;;;;11.02;5.30;;;;;;;13.16;59.51;99970.88;4980691;28;20045;-88
2023/03/21 11:25:26;;;;;;;11.93;4.53;;;;;;;13.15;59.37;99977.19;5007188;28;20064;-87
2023/03/21 11:27:54;;;;;;;13.50;5.38;;;;;;;13.17;59.59;99969.03;4996064;28;20058;-87
2023/03/21 11:30:23;;;;;;;15.05;5.95;;;;;;;13.20;59.90;99968.72;4988860;28;20456;-85
2023/03/21 11:32:54;;;;;;;17.27;5.25;;;;;;;13.23;60.01;99963.97;5015363;28;20128;-87
2023/03/21 11:35:24;;;;;;;13.57;5.70;;;;;;;13.22;60.19;99964.94;4941947;28;20046;-85
2023/03/21 11:37:53;;;;;;;9.77;4.80;;;;;;;13.24;60.10;99970.97;4940176;28;20045;-87
2023/03/21 11:40:51;;;;;;;10.43;4.88;;;;;;;13.14;59.81;99964.84;4969404;28;20517;-87
2023/03/21 11:43:17;;;;;;;12.68;4.30;;;;;;;13.27;60.21;99969.00;4932433;28;20608;-87